sensor_id;sensor_type;location;lat;lon;timestamp;pressure;altitude;pressure_sealevel;temperature;humidity
70370;BME280;57790;51.356;-2.906;2023-05-13T00:02:51;102817.69;;;15.28;100.00
70370;BME280;57790;51.356;-2.906;2023-05-13T00:05:52;102812.34;;;15.28;100.00
70370;BME280;57790;51.356;-2.906;2023-05-13T00:08:52;102822.75;;;15.31;100.00
70370;BME280;57790;51.356;-2.906;2023-05-13T00:11:52;102821.75;;;15.32;100.00
70370;BME280;57790;51.356;-2.906;2023-05-13T00:14:53;102826.09;;;15.33;100.00
70370;BME280;57790;51.356;-2.906;2023-05-13T00:17:53;102832.44;;;15.32;100.00
70370;BME280;57790;51.356;-2.906;2023-05-13T00:20:53;102837.22;;;15.28;100.00
70370;BME280;57790;51.356;-2.906;2023-05-13T00:23:55;102841.88;;;15.26;100.00
70370;BME280;57790;51.356;-2.906;2023-05-13T00:26:56;102833.16;;;15.24;100.00
70370;BME280;57790;51.356;-2.906;2023-05-13T00:30:04;102837.81;;;15.22;100.00
70370;BME280;57790;51.356;-2.906;2023-05-13T00:33:04;102821.91;;;15.21;100.00
70370;BME280;57790;51.356;-2.906;2023-05-13T00:36:06;102821.63;;;15.04;100.00
70370;BME280;57790;51.356;-2.906;2023-05-13T00:39:09;102815.72;;;15.01;100.00
70370;BME280;57790;51.356;-2.906;2023-05-13T00:42:10;102820.22;;;15.00;100.00
70370;BME280;57790;51.356;-2.906;2023-05-13T00:45:13;102818.00;;;15.05;100.00
70370;BME280;57790;51.356;-2.906;2023-05-13T00:48:13;102816.16;;;15.06;100.00
70370;BME280;57790;51.356;-2.906;2023-05-13T00:51:14;102827.69;;;15.06;100.00
70370;BME280;57790;51.356;-2.906;2023-05-13T00:54:14;102825.16;;;15.05;100.00
70370;BME280;57790;51.356;-2.906;2023-05-13T00:57:15;102831.47;;;15.04;100.00
70370;BME280;57790;51.356;-2.906;2023-05-13T01:00:16;102827.41;;;14.90;100.00
70370;BME280;57790;51.356;-2.906;2023-05-13T01:03:23;102827.50;;;14.88;100.00
70370;BME280;57790;51.356;-2.906;2023-05-13T01:06:35;102828.66;;;14.96;100.00
70370;BME280;57790;51.356;-2.906;2023-05-13T01:10:04;102835.13;;;14.93;100.00
70370;BME280;57790;51.356;-2.906;2023-05-13T01:13:10;102840.75;;;14.90;100.00
70370;BME280;57790;51.356;-2.906;2023-05-13T01:16:18;102840.03;;;14.88;100.00
70370;BME280;57790;51.356;-2.906;2023-05-13T01:19:44;102832.84;;;14.88;100.00
70370;BME280;57790;51.356;-2.906;2023-05-13T01:22:45;102835.28;;;14.92;100.00
70370;BME280;57790;51.356;-2.906;2023-05-13T01:25:46;102832.28;;;14.85;100.00
70370;BME280;57790;51.356;-2.906;2023-05-13T01:28:48;102839.59;;;14.83;100.00
70370;BME280;57790;51.356;-2.906;2023-05-13T01:31:49;102834.25;;;14.83;100.00
70370;BME280;57790;51.356;-2.906;2023-05-13T01:34:51;102837.91;;;14.82;100.00
70370;BME280;57790;51.356;-2.906;2023-05-13T01:37:52;102832.88;;;14.79;100.00
70370;BME280;57790;51.356;-2.906;2023-05-13T01:40:55;102836.09;;;14.82;100.00
70370;BME280;57790;51.356;-2.906;2023-05-13T01:43:55;102847.06;;;14.79;100.00
70370;BME280;57790;51.356;-2.906;2023-05-13T01:46:56;102843.81;;;14.76;100.00
70370;BME280;57790;51.356;-2.906;2023-05-13T01:49:57;102843.81;;;14.76;100.00
70370;BME280;57790;51.356;-2.906;2023-05-13T01:52:57;102851.84;;;14.76;100.00
70370;BME280;57790;51.356;-2.906;2023-05-13T01:55:58;102849.56;;;14.71;100.00
70370;BME280;57790;51.356;-2.906;2023-05-13T01:58:58;102851.25;;;14.63;100.00
70370;BME280;57790;51.356;-2.906;2023-05-13T02:01:59;102853.78;;;14.64;100.00
70370;BME280;57790;51.356;-2.906;2023-05-13T02:04:59;102847.44;;;14.65;100.00
70370;BME280;57790;51.356;-2.906;2023-05-13T02:08:00;102844.22;;;14.62;100.00
70370;BME280;57790;51.356;-2.906;2023-05-13T02:11:00;102839.00;;;14.60;100.00
70370;BME280;57790;51.356;-2.906;2023-05-13T02:14:00;102846.03;;;14.61;100.00
70370;BME280;57790;51.356;-2.906;2023-05-13T02:17:01;102838.72;;;14.53;100.00
70370;BME280;57790;51.356;-2.906;2023-05-13T02:20:02;102839.97;;;14.59;100.00
70370;BME280;57790;51.356;-2.906;2023-05-13T02:23:03;102833.09;;;14.47;100.00
70370;BME280;57790;51.356;-2.906;2023-05-13T02:26:03;102836.72;;;14.46;100.00
70370;BME280;57790;51.356;-2.906;2023-05-13T02:29:03;102828.38;;;14.39;100.00
70370;BME280;57790;51.356;-2.906;2023-05-13T02:32:04;102825.28;;;14.34;100.00
70370;BME280;57790;51.356;-2.906;2023-05-13T02:35:05;102818.09;;;14.25;100.00
70370;BME280;57790;51.356;-2.906;2023-05-13T02:38:08;102833.81;;;14.28;100.00
70370;BME280;57790;51.356;-2.906;2023-05-13T02:41:09;102826.34;;;14.22;100.00
70370;BME280;57790;51.356;-2.906;2023-05-13T02:44:09;102842.22;;;14.23;100.00
70370;BME280;57790;51.356;-2.906;2023-05-13T02:47:10;102823.69;;;14.22;100.00
70370;BME280;57790;51.356;-2.906;2023-05-13T02:50:10;102821.72;;;14.24;100.00
70370;BME280;57790;51.356;-2.906;2023-05-13T02:53:11;102812.75;;;14.25;100.00
70370;BME280;57790;51.356;-2.906;2023-05-13T02:56:12;102821.03;;;14.22;100.00
70370;BME280;57790;51.356;-2.906;2023-05-13T02:59:15;102818.34;;;14.22;100.00
70370;BME280;57790;51.356;-2.906;2023-05-13T03:02:15;102812.13;;;14.12;100.00
70370;BME280;57790;51.356;-2.906;2023-05-13T03:05:16;102807.50;;;14.14;100.00
70370;BME280;57790;51.356;-2.906;2023-05-13T03:08:16;102810.31;;;14.12;100.00
70370;BME280;57790;51.356;-2.906;2023-05-13T03:11:17;102801.47;;;14.12;100.00
70370;BME280;57790;51.356;-2.906;2023-05-13T03:14:17;102807.59;;;14.03;100.00
70370;BME280;57790;51.356;-2.906;2023-05-13T03:17:18;102803.38;;;14.00;100.00
70370;BME280;57790;51.356;-2.906;2023-05-13T03:20:18;102798.88;;;14.00;100.00
70370;BME280;57790;51.356;-2.906;2023-05-13T03:23:18;102795.00;;;14.05;100.00
70370;BME280;57790;51.356;-2.906;2023-05-13T03:26:19;102802.66;;;13.98;100.00
70370;BME280;57790;51.356;-2.906;2023-05-13T03:29:20;102803.78;;;13.95;100.00
70370;BME280;57790;51.356;-2.906;2023-05-13T03:32:20;102805.34;;;13.98;100.00
70370;BME280;57790;51.356;-2.906;2023-05-13T03:35:22;102799.28;;;13.96;100.00
70370;BME280;57790;51.356;-2.906;2023-05-13T03:38:23;102803.34;;;13.90;100.00
70370;BME280;57790;51.356;-2.906;2023-05-13T03:41:23;102809.19;;;13.84;100.00
70370;BME280;57790;51.356;-2.906;2023-05-13T03:44:23;102812.56;;;13.86;100.00
70370;BME280;57790;51.356;-2.906;2023-05-13T03:47:24;102816.22;;;13.85;100.00
70370;BME280;57790;51.356;-2.906;2023-05-13T03:50:24;102819.88;;;13.84;100.00
70370;BME280;57790;51.356;-2.906;2023-05-13T03:53:25;102816.75;;;13.79;100.00
70370;BME280;57790;51.356;-2.906;2023-05-13T03:56:26;102815.06;;;13.78;100.00
70370;BME280;57790;51.356;-2.906;2023-05-13T03:59:27;102811.44;;;13.79;100.00
70370;BME280;57790;51.356;-2.906;2023-05-13T04:02:27;102807.78;;;13.80;100.00
70370;BME280;57790;51.356;-2.906;2023-05-13T04:05:27;102811.44;;;13.79;100.00
70370;BME280;57790;51.356;-2.906;2023-05-13T04:08:28;102814.50;;;13.75;100.00
70370;BME280;57790;51.356;-2.906;2023-05-13T04:11:28;102814.88;;;13.70;100.00
70370;BME280;57790;51.356;-2.906;2023-05-13T04:14:28;102811.38;;;13.69;100.00
70370;BME280;57790;51.356;-2.906;2023-05-13T04:17:29;102816.56;;;13.71;100.00
70370;BME280;57790;51.356;-2.906;2023-05-13T04:20:29;102815.44;;;13.74;100.00
70370;BME280;57790;51.356;-2.906;2023-05-13T04:23:29;102821.44;;;13.66;100.00
70370;BME280;57790;51.356;-2.906;2023-05-13T04:26:30;102831.97;;;13.67;100.00
70370;BME280;57790;51.356;-2.906;2023-05-13T04:29:30;102822.00;;;13.60;100.00
70370;BME280;57790;51.356;-2.906;2023-05-13T04:32:31;102806.84;;;13.60;100.00
70370;BME280;57790;51.356;-2.906;2023-05-13T04:35:31;102812.28;;;13.59;100.00
70370;BME280;57790;51.356;-2.906;2023-05-13T04:38:32;102810.47;;;13.59;100.00
70370;BME280;57790;51.356;-2.906;2023-05-13T04:41:32;102811.84;;;13.54;100.00
70370;BME280;57790;51.356;-2.906;2023-05-13T04:44:33;102812.09;;;13.51;100.00
70370;BME280;57790;51.356;-2.906;2023-05-13T04:47:34;102816.59;;;13.50;100.00
70370;BME280;57790;51.356;-2.906;2023-05-13T04:50:35;102815.47;;;13.53;100.00
70370;BME280;57790;51.356;-2.906;2023-05-13T04:53:35;102812.81;;;13.53;100.00
70370;BME280;57790;51.356;-2.906;2023-05-13T04:56:36;102814.06;;;13.49;100.00
70370;BME280;57790;51.356;-2.906;2023-05-13T04:59:36;102819.66;;;13.46;100.00
70370;BME280;57790;51.356;-2.906;2023-05-13T05:02:37;102824.25;;;13.44;100.00
70370;BME280;57790;51.356;-2.906;2023-05-13T05:05:37;102831.03;;;13.48;100.00
70370;BME280;57790;51.356;-2.906;2023-05-13T05:08:37;102827.53;;;13.47;100.00
70370;BME280;57790;51.356;-2.906;2023-05-13T05:11:38;102826.06;;;13.43;100.00
70370;BME280;57790;51.356;-2.906;2023-05-13T05:14:39;102824.06;;;13.35;100.00
70370;BME280;57790;51.356;-2.906;2023-05-13T05:17:43;102822.09;;;13.37;100.00
70370;BME280;57790;51.356;-2.906;2023-05-13T05:20:44;102813.66;;;13.32;100.00
70370;BME280;57790;51.356;-2.906;2023-05-13T05:23:45;102820.69;;;13.33;100.00
70370;BME280;57790;51.356;-2.906;2023-05-13T05:26:45;102826.84;;;13.34;100.00
70370;BME280;57790;51.356;-2.906;2023-05-13T05:29:45;102827.00;;;13.32;100.00
70370;BME280;57790;51.356;-2.906;2023-05-13T05:32:46;102826.16;;;13.32;100.00
70370;BME280;57790;51.356;-2.906;2023-05-13T05:35:46;102820.22;;;13.28;100.00
70370;BME280;57790;51.356;-2.906;2023-05-13T05:38:47;102817.41;;;13.30;100.00
70370;BME280;57790;51.356;-2.906;2023-05-13T05:41:47;102825.53;;;13.28;100.00
70370;BME280;57790;51.356;-2.906;2023-05-13T05:44:48;102821.19;;;13.27;100.00
70370;BME280;57790;51.356;-2.906;2023-05-13T05:47:48;102824.25;;;13.23;100.00
70370;BME280;57790;51.356;-2.906;2023-05-13T05:50:48;102827.03;;;13.21;100.00
70370;BME280;57790;51.356;-2.906;2023-05-13T05:53:49;102825.81;;;13.14;100.00
70370;BME280;57790;51.356;-2.906;2023-05-13T05:56:49;102824.63;;;13.18;100.00
70370;BME280;57790;51.356;-2.906;2023-05-13T05:59:50;102840.09;;;13.24;100.00
70370;BME280;57790;51.356;-2.906;2023-05-13T06:02:50;102835.75;;;13.23;100.00
70370;BME280;57790;51.356;-2.906;2023-05-13T06:05:51;102842.19;;;13.21;100.00
70370;BME280;57790;51.356;-2.906;2023-05-13T06:08:54;102846.53;;;13.22;100.00
70370;BME280;57790;51.356;-2.906;2023-05-13T06:11:54;102855.94;;;13.26;100.00
70370;BME280;57790;51.356;-2.906;2023-05-13T06:14:55;102848.72;;;13.17;100.00
70370;BME280;57790;51.356;-2.906;2023-05-13T06:17:55;102853.69;;;13.21;100.00
70370;BME280;57790;51.356;-2.906;2023-05-13T06:20:58;102856.06;;;13.24;100.00
70370;BME280;57790;51.356;-2.906;2023-05-13T06:24:00;102862.63;;;13.20;100.00
70370;BME280;57790;51.356;-2.906;2023-05-13T06:27:02;102860.81;;;13.21;100.00
70370;BME280;57790;51.356;-2.906;2023-05-13T06:30:03;102861.03;;;13.18;100.00
70370;BME280;57790;51.356;-2.906;2023-05-13T06:33:04;102862.13;;;13.15;100.00
70370;BME280;57790;51.356;-2.906;2023-05-13T06:36:05;102859.72;;;13.23;100.00
70370;BME280;57790;51.356;-2.906;2023-05-13T06:39:05;102862.25;;;13.25;100.00
70370;BME280;57790;51.356;-2.906;2023-05-13T06:42:06;102858.47;;;13.27;100.00
70370;BME280;57790;51.356;-2.906;2023-05-13T06:45:07;102866.47;;;13.27;100.00
70370;BME280;57790;51.356;-2.906;2023-05-13T06:48:07;102857.63;;;13.27;100.00
70370;BME280;57790;51.356;-2.906;2023-05-13T06:51:08;102869.53;;;13.23;100.00
70370;BME280;57790;51.356;-2.906;2023-05-13T06:54:08;102871.47;;;13.21;100.00
70370;BME280;57790;51.356;-2.906;2023-05-13T06:57:09;102873.34;;;13.30;100.00
70370;BME280;57790;51.356;-2.906;2023-05-13T07:00:10;102871.09;;;13.25;100.00
70370;BME280;57790;51.356;-2.906;2023-05-13T07:03:10;102872.50;;;13.29;100.00
70370;BME280;57790;51.356;-2.906;2023-05-13T07:06:11;102867.44;;;13.26;100.00
70370;BME280;57790;51.356;-2.906;2023-05-13T07:09:11;102879.78;;;13.27;100.00
70370;BME280;57790;51.356;-2.906;2023-05-13T07:12:12;102877.59;;;13.32;100.00
70370;BME280;57790;51.356;-2.906;2023-05-13T07:15:13;102877.84;;;13.29;100.00
70370;BME280;57790;51.356;-2.906;2023-05-13T07:18:13;102890.19;;;13.30;100.00
70370;BME280;57790;51.356;-2.906;2023-05-13T07:21:14;102884.00;;;13.30;100.00
70370;BME280;57790;51.356;-2.906;2023-05-13T07:24:15;102878.31;;;13.34;100.00
70370;BME280;57790;51.356;-2.906;2023-05-13T07:27:16;102877.34;;;13.35;100.00
70370;BME280;57790;51.356;-2.906;2023-05-13T07:30:16;102885.34;;;13.35;100.00
70370;BME280;57790;51.356;-2.906;2023-05-13T07:33:16;102880.72;;;13.37;100.00
70370;BME280;57790;51.356;-2.906;2023-05-13T07:36:17;102876.56;;;13.45;100.00
70370;BME280;57790;51.356;-2.906;2023-05-13T07:39:17;102879.56;;;13.51;100.00
70370;BME280;57790;51.356;-2.906;2023-05-13T07:42:18;102867.94;;;13.52;100.00
70370;BME280;57790;51.356;-2.906;2023-05-13T07:45:18;102866.44;;;13.59;100.00
70370;BME280;57790;51.356;-2.906;2023-05-13T07:48:19;102875.09;;;13.52;100.00
70370;BME280;57790;51.356;-2.906;2023-05-13T07:51:19;102869.88;;;13.50;100.00
70370;BME280;57790;51.356;-2.906;2023-05-13T07:54:19;102871.19;;;13.56;100.00
70370;BME280;57790;51.356;-2.906;2023-05-13T07:57:20;102868.38;;;13.57;100.00
70370;BME280;57790;51.356;-2.906;2023-05-13T08:00:20;102869.56;;;13.64;100.00
70370;BME280;57790;51.356;-2.906;2023-05-13T08:03:21;102864.94;;;13.66;100.00
70370;BME280;57790;51.356;-2.906;2023-05-13T08:06:21;102870.41;;;13.65;100.00
70370;BME280;57790;51.356;-2.906;2023-05-13T08:09:22;102881.19;;;13.63;100.00
70370;BME280;57790;51.356;-2.906;2023-05-13T08:12:22;102874.06;;;13.64;100.00
70370;BME280;57790;51.356;-2.906;2023-05-13T08:15:23;102869.22;;;13.58;100.00
70370;BME280;57790;51.356;-2.906;2023-05-13T08:18:24;102881.19;;;13.63;100.00
70370;BME280;57790;51.356;-2.906;2023-05-13T08:21:24;102879.81;;;13.69;100.00
70370;BME280;57790;51.356;-2.906;2023-05-13T08:24:24;102883.47;;;13.68;100.00
70370;BME280;57790;51.356;-2.906;2023-05-13T08:27:25;102881.25;;;13.73;100.00
70370;BME280;57790;51.356;-2.906;2023-05-13T08:30:25;102883.69;;;13.76;100.00
70370;BME280;57790;51.356;-2.906;2023-05-13T08:33:26;102878.22;;;13.78;100.00
70370;BME280;57790;51.356;-2.906;2023-05-13T08:36:26;102885.09;;;13.80;100.00
70370;BME280;57790;51.356;-2.906;2023-05-13T08:39:27;102884.13;;;13.81;100.00
70370;BME280;57790;51.356;-2.906;2023-05-13T08:42:33;102884.69;;;13.85;100.00
70370;BME280;57790;51.356;-2.906;2023-05-13T08:45:37;102886.53;;;13.84;100.00
70370;BME280;57790;51.356;-2.906;2023-05-13T08:48:40;102888.41;;;13.93;100.00
70370;BME280;57790;51.356;-2.906;2023-05-13T08:51:40;102890.50;;;13.90;100.00
70370;BME280;57790;51.356;-2.906;2023-05-13T08:54:44;102886.31;;;13.97;100.00
70370;BME280;57790;51.356;-2.906;2023-05-13T08:57:45;102889.06;;;14.07;100.00
70370;BME280;57790;51.356;-2.906;2023-05-13T09:00:47;102888.66;;;14.11;100.00
70370;BME280;57790;51.356;-2.906;2023-05-13T09:03:57;102894.97;;;14.10;100.00
70370;BME280;57790;51.356;-2.906;2023-05-13T09:06:59;102890.47;;;14.11;100.00
70370;BME280;57790;51.356;-2.906;2023-05-13T09:10:00;102890.19;;;14.14;100.00
70370;BME280;57790;51.356;-2.906;2023-05-13T09:13:00;102891.03;;;14.14;100.00
70370;BME280;57790;51.356;-2.906;2023-05-13T09:16:01;102896.97;;;14.18;100.00
70370;BME280;57790;51.356;-2.906;2023-05-13T09:19:03;102891.50;;;14.19;100.00
70370;BME280;57790;51.356;-2.906;2023-05-13T09:22:04;102903.19;;;14.28;100.00
70370;BME280;57790;51.356;-2.906;2023-05-13T09:25:04;102898.41;;;14.32;100.00
70370;BME280;57790;51.356;-2.906;2023-05-13T09:28:07;102891.84;;;14.36;100.00
70370;BME280;57790;51.356;-2.906;2023-05-13T09:31:07;102889.91;;;14.38;100.00
70370;BME280;57790;51.356;-2.906;2023-05-13T09:34:08;102883.16;;;14.43;100.00
70370;BME280;57790;51.356;-2.906;2023-05-13T09:37:08;102882.91;;;14.46;100.00
70370;BME280;57790;51.356;-2.906;2023-05-13T09:40:11;102887.22;;;14.38;100.00
70370;BME280;57790;51.356;-2.906;2023-05-13T09:43:11;102884.88;;;14.44;100.00
70370;BME280;57790;51.356;-2.906;2023-05-13T09:46:12;102892.66;;;14.47;100.00
70370;BME280;57790;51.356;-2.906;2023-05-13T09:49:13;102881.41;;;14.53;100.00
70370;BME280;57790;51.356;-2.906;2023-05-13T09:52:15;102887.31;;;14.57;100.00
70370;BME280;57790;51.356;-2.906;2023-05-13T09:55:16;102879.34;;;14.67;100.00
70370;BME280;57790;51.356;-2.906;2023-05-13T09:58:16;102883.16;;;14.64;100.00
70370;BME280;57790;51.356;-2.906;2023-05-13T10:01:19;102874.44;;;14.62;100.00
70370;BME280;57790;51.356;-2.906;2023-05-13T10:04:20;102877.81;;;14.64;100.00
70370;BME280;57790;51.356;-2.906;2023-05-13T10:07:22;102878.50;;;14.66;100.00
70370;BME280;57790;51.356;-2.906;2023-05-13T10:10:24;102874.72;;;14.69;100.00
70370;BME280;57790;51.356;-2.906;2023-05-13T10:13:27;102881.59;;;14.71;100.00
70370;BME280;57790;51.356;-2.906;2023-05-13T10:16:31;102873.91;;;14.78;100.00
70370;BME280;57790;51.356;-2.906;2023-05-13T10:19:32;102884.44;;;14.79;100.00
70370;BME280;57790;51.356;-2.906;2023-05-13T10:22:33;102882.34;;;14.83;100.00
70370;BME280;57790;51.356;-2.906;2023-05-13T10:25:35;102874.88;;;14.86;100.00
70370;BME280;57790;51.356;-2.906;2023-05-13T10:28:37;102881.66;;;14.91;100.00
70370;BME280;57790;51.356;-2.906;2023-05-13T10:31:38;102874.78;;;14.98;100.00
70370;BME280;57790;51.356;-2.906;2023-05-13T10:34:39;102871.66;;;15.02;100.00
70370;BME280;57790;51.356;-2.906;2023-05-13T10:38:09;102872.13;;;15.07;100.00
70370;BME280;57790;51.356;-2.906;2023-05-13T10:44:40;102881.38;;;15.13;100.00
70370;BME280;57790;51.356;-2.906;2023-05-13T10:47:41;102885.59;;;15.15;100.00
70370;BME280;57790;51.356;-2.906;2023-05-13T10:51:02;102876.59;;;15.16;100.00
70370;BME280;57790;51.356;-2.906;2023-05-13T10:54:17;102871.97;;;15.18;100.00
70370;BME280;57790;51.356;-2.906;2023-05-13T10:57:26;102876.06;;;15.23;100.00
70370;BME280;57790;51.356;-2.906;2023-05-13T11:00:30;102875.63;;;15.27;100.00
70370;BME280;57790;51.356;-2.906;2023-05-13T11:03:30;102881.53;;;15.31;100.00
70370;BME280;57790;51.356;-2.906;2023-05-13T11:06:38;102886.19;;;15.29;100.00
70370;BME280;57790;51.356;-2.906;2023-05-13T11:09:39;102883.22;;;15.32;100.00
70370;BME280;57790;51.356;-2.906;2023-05-13T11:12:40;102882.53;;;15.30;100.00
70370;BME280;57790;51.356;-2.906;2023-05-13T11:15:53;102878.59;;;15.34;100.00
70370;BME280;57790;51.356;-2.906;2023-05-13T11:18:53;102876.34;;;15.39;100.00
70370;BME280;57790;51.356;-2.906;2023-05-13T11:22:07;102877.31;;;15.38;100.00
70370;BME280;57790;51.356;-2.906;2023-05-13T11:25:11;102880.97;;;15.46;100.00
70370;BME280;57790;51.356;-2.906;2023-05-13T11:28:16;102877.19;;;15.49;100.00
70370;BME280;57790;51.356;-2.906;2023-05-13T11:31:17;102877.88;;;15.51;100.00
70370;BME280;57790;51.356;-2.906;2023-05-13T11:34:21;102877.59;;;15.54;100.00
70370;BME280;57790;51.356;-2.906;2023-05-13T11:37:22;102877.75;;;15.53;100.00
70370;BME280;57790;51.356;-2.906;2023-05-13T11:43:26;102871.13;;;15.57;100.00
70370;BME280;57790;51.356;-2.906;2023-05-13T11:46:26;102871.28;;;15.65;100.00
70370;BME280;57790;51.356;-2.906;2023-05-13T11:49:44;102866.34;;;15.70;100.00
70370;BME280;57790;51.356;-2.906;2023-05-13T11:52:49;102865.75;;;15.76;100.00
70370;BME280;57790;51.356;-2.906;2023-05-13T11:55:51;102860.13;;;15.79;100.00
70370;BME280;57790;51.356;-2.906;2023-05-13T11:58:51;102860.84;;;15.81;100.00
70370;BME280;57790;51.356;-2.906;2023-05-13T12:02:01;102849.00;;;15.84;100.00
70370;BME280;57790;51.356;-2.906;2023-05-13T12:05:03;102850.81;;;15.93;100.00
70370;BME280;57790;51.356;-2.906;2023-05-13T12:08:06;102842.78;;;15.93;100.00
70370;BME280;57790;51.356;-2.906;2023-05-13T12:11:08;102848.38;;;15.99;100.00
70370;BME280;57790;51.356;-2.906;2023-05-13T12:14:12;102848.78;;;16.04;100.00
70370;BME280;57790;51.356;-2.906;2023-05-13T12:17:12;102849.34;;;16.08;100.00
70370;BME280;57790;51.356;-2.906;2023-05-13T12:20:18;102848.31;;;16.19;100.00
70370;BME280;57790;51.356;-2.906;2023-05-13T12:23:18;102841.53;;;16.24;100.00
70370;BME280;57790;51.356;-2.906;2023-05-13T12:26:19;102842.31;;;16.34;100.00
70370;BME280;57790;51.356;-2.906;2023-05-13T12:29:19;102836.22;;;16.42;100.00
70370;BME280;57790;51.356;-2.906;2023-05-13T12:32:20;102833.25;;;16.45;100.00
70370;BME280;57790;51.356;-2.906;2023-05-13T12:35:21;102833.09;;;16.47;100.00
70370;BME280;57790;51.356;-2.906;2023-05-13T12:38:23;102828.84;;;16.54;100.00
70370;BME280;57790;51.356;-2.906;2023-05-13T12:41:27;102826.53;;;16.59;100.00
70370;BME280;57790;51.356;-2.906;2023-05-13T12:44:29;102825.13;;;16.64;100.00
70370;BME280;57790;51.356;-2.906;2023-05-13T12:47:46;102829.03;;;16.70;100.00
70370;BME280;57790;51.356;-2.906;2023-05-13T12:50:47;102822.91;;;16.78;100.00
70370;BME280;57790;51.356;-2.906;2023-05-13T12:53:48;102818.66;;;16.85;100.00
70370;BME280;57790;51.356;-2.906;2023-05-13T12:56:48;102824.22;;;16.91;100.00
70370;BME280;57790;51.356;-2.906;2023-05-13T12:59:49;102821.94;;;16.97;100.00
70370;BME280;57790;51.356;-2.906;2023-05-13T13:02:49;102829.66;;;17.00;100.00
70370;BME280;57790;51.356;-2.906;2023-05-13T13:05:50;102820.00;;;17.07;100.00
70370;BME280;57790;51.356;-2.906;2023-05-13T13:08:51;102808.53;;;17.14;100.00
70370;BME280;57790;51.356;-2.906;2023-05-13T13:11:51;102815.94;;;17.20;100.00
70370;BME280;57790;51.356;-2.906;2023-05-13T13:14:52;102815.50;;;17.25;100.00
70370;BME280;57790;51.356;-2.906;2023-05-13T13:17:52;102809.91;;;17.36;100.00
70370;BME280;57790;51.356;-2.906;2023-05-13T13:20:53;102808.72;;;17.39;100.00
70370;BME280;57790;51.356;-2.906;2023-05-13T13:23:53;102810.28;;;17.49;100.00
70370;BME280;57790;51.356;-2.906;2023-05-13T13:26:54;102801.47;;;17.57;100.00
70370;BME280;57790;51.356;-2.906;2023-05-13T13:29:55;102812.72;;;17.61;100.00
70370;BME280;57790;51.356;-2.906;2023-05-13T13:32:55;102802.09;;;17.69;100.00
70370;BME280;57790;51.356;-2.906;2023-05-13T13:35:55;102793.03;;;17.70;100.00
70370;BME280;57790;51.356;-2.906;2023-05-13T13:38:56;102788.53;;;17.78;100.00
70370;BME280;57790;51.356;-2.906;2023-05-13T13:41:56;102789.78;;;17.84;100.00
70370;BME280;57790;51.356;-2.906;2023-05-13T13:44:56;102781.06;;;17.90;100.00
70370;BME280;57790;51.356;-2.906;2023-05-13T13:47:57;102778.59;;;17.97;100.00
70370;BME280;57790;51.356;-2.906;2023-05-13T13:50:58;102769.03;;;18.02;100.00
70370;BME280;57790;51.356;-2.906;2023-05-13T13:54:05;102773.25;;;18.05;100.00
70370;BME280;57790;51.356;-2.906;2023-05-13T13:57:06;102772.06;;;18.07;100.00
70370;BME280;57790;51.356;-2.906;2023-05-13T14:00:07;102766.41;;;18.10;100.00
70370;BME280;57790;51.356;-2.906;2023-05-13T14:03:08;102758.53;;;18.17;100.00
70370;BME280;57790;51.356;-2.906;2023-05-13T14:06:08;102753.19;;;18.25;100.00
70370;BME280;57790;51.356;-2.906;2023-05-13T14:09:08;102750.84;;;18.30;100.00
70370;BME280;57790;51.356;-2.906;2023-05-13T14:12:12;102747.16;;;18.31;100.00
70370;BME280;57790;51.356;-2.906;2023-05-13T14:15:12;102749.03;;;18.39;100.00
70370;BME280;57790;51.356;-2.906;2023-05-13T14:18:13;102735.78;;;18.46;100.00
70370;BME280;57790;51.356;-2.906;2023-05-13T14:21:13;102732.59;;;18.50;100.00
70370;BME280;57790;51.356;-2.906;2023-05-13T14:24:13;102729.41;;;18.63;100.00
70370;BME280;57790;51.356;-2.906;2023-05-13T14:27:14;102729.97;;;18.66;100.00
70370;BME280;57790;51.356;-2.906;2023-05-13T14:30:14;102718.38;;;18.74;100.00
70370;BME280;57790;51.356;-2.906;2023-05-13T14:33:14;102711.81;;;18.77;100.00
70370;BME280;57790;51.356;-2.906;2023-05-13T14:36:15;102713.84;;;18.83;100.00
70370;BME280;57790;51.356;-2.906;2023-05-13T14:39:15;102711.50;;;18.88;100.00
70370;BME280;57790;51.356;-2.906;2023-05-13T14:42:16;102715.69;;;18.90;100.00
70370;BME280;57790;51.356;-2.906;2023-05-13T14:45:17;102712.47;;;18.95;100.00
70370;BME280;57790;51.356;-2.906;2023-05-13T14:48:17;102709.47;;;18.98;100.00
70370;BME280;57790;51.356;-2.906;2023-05-13T14:51:18;102694.16;;;19.07;100.00
70370;BME280;57790;51.356;-2.906;2023-05-13T14:54:18;102700.56;;;19.14;100.00
70370;BME280;57790;51.356;-2.906;2023-05-13T14:57:19;102691.59;;;19.21;100.00
70370;BME280;57790;51.356;-2.906;2023-05-13T15:00:20;102686.56;;;19.26;100.00
70370;BME280;57790;51.356;-2.906;2023-05-13T15:03:20;102682.16;;;19.33;100.00
70370;BME280;57790;51.356;-2.906;2023-05-13T15:06:21;102673.44;;;19.40;100.00
70370;BME280;57790;51.356;-2.906;2023-05-13T15:09:21;102675.59;;;19.44;100.00
70370;BME280;57790;51.356;-2.906;2023-05-13T15:12:22;102664.81;;;19.44;100.00
70370;BME280;57790;51.356;-2.906;2023-05-13T15:15:22;102661.44;;;19.50;100.00
70370;BME280;57790;51.356;-2.906;2023-05-13T15:18:22;102653.72;;;19.55;100.00
70370;BME280;57790;51.356;-2.906;2023-05-13T15:21:23;102659.22;;;19.62;100.00
70370;BME280;57790;51.356;-2.906;2023-05-13T15:24:23;102648.44;;;19.70;100.00
70370;BME280;57790;51.356;-2.906;2023-05-13T15:27:26;102657.00;;;19.74;100.00
70370;BME280;57790;51.356;-2.906;2023-05-13T15:30:27;102653.78;;;19.78;100.00
70370;BME280;57790;51.356;-2.906;2023-05-13T15:33:28;102641.66;;;19.82;100.00